Time;durP1;ratioP1;P1;durP2;ratioP2;P2;SDS_P1;SDS_P2;PMS_P1;PMS_P2;Temp;Humidity;BMP_temperature;BMP_pressure;BME280_temperature;BME280_humidity;BME280_pressure;Samples;Min_cycle;Max_cycle;Signal;HPM_P1;HPM_P2
2021/08/08 00:01:10;;;;;;;27.63;7.05;;;;;;;22.25;51.72;98834.41;5018413;28;20124;-82
2021/08/08 00:03:36;;;;;;;30.35;6.72;;;;;;;22.32;51.66;98856.75;5039766;28;20042;-81
2021/08/08 00:06:03;;;;;;;17.23;6.50;;;;;;;22.34;51.82;98859.16;5032125;28;20049;-81
2021/08/08 00:08:31;;;;;;;16.98;6.07;;;;;;;22.32;51.93;98858.72;5030134;28;20136;-82
2021/08/08 00:10:58;;;;;;;22.42;6.93;;;;;;;22.31;51.81;98857.13;5024553;28;20536;-80
2021/08/08 00:13:24;;;;;;;20.95;6.68;;;;;;;22.29;51.85;98849.16;5030104;28;20060;-81
2021/08/08 00:15:50;;;;;;;31.15;6.95;;;;;;;22.27;52.04;98861.84;5029307;28;20050;-81
2021/08/08 00:18:17;;;;;;;23.02;6.72;;;;;;;22.26;51.96;98863.84;5036303;28;20518;-81
2021/08/08 00:20:43;;;;;;;21.90;6.77;;;;;;;22.22;52.50;98866.56;5038748;28;20041;-81
2021/08/08 00:23:10;;;;;;;23.77;6.93;;;;;;;22.22;52.24;98860.19;5022147;28;20308;-80
2021/08/08 00:25:38;;;;;;;24.45;6.80;;;;;;;22.12;52.28;98849.72;5016358;28;20140;-81
2021/08/08 00:28:06;;;;;;;26.45;6.07;;;;;;;22.18;52.46;98860.16;5029578;28;20048;-81
2021/08/08 00:30:32;;;;;;;21.35;6.60;;;;;;;22.16;52.36;98864.47;5029864;28;20048;-81
2021/08/08 00:32:58;;;;;;;23.57;6.27;;;;;;;22.11;52.49;98857.25;5021706;28;20046;-81
2021/08/08 00:35:32;;;;;;;24.77;6.63;;;;;;;22.13;52.47;98871.59;5012372;28;20483;-81
2021/08/08 00:37:59;;;;;;;17.02;6.18;;;;;;;22.10;52.40;98873.16;5023101;28;20469;-80
2021/08/08 00:40:27;;;;;;;22.90;6.53;;;;;;;22.06;52.41;98868.72;5028512;28;20047;-80
2021/08/08 00:42:56;;;;;;;17.92;6.35;;;;;;;22.07;52.46;98867.53;5009436;28;20057;-80
2021/08/08 00:45:22;;;;;;;22.90;6.43;;;;;;;22.01;52.25;98860.69;5020075;28;20391;-80
2021/08/08 00:47:58;;;;;;;19.42;6.07;;;;;;;22.07;52.31;98873.91;5037742;28;20128;-80
2021/08/08 00:50:30;;;;;;;27.50;6.68;;;;;;;22.05;51.99;98872.69;5025455;28;20044;-81
2021/08/08 00:52:57;;;;;;;16.92;6.03;;;;;;;22.04;52.26;98874.66;5023122;28;20045;-80
2021/08/08 00:55:23;;;;;;;19.58;5.85;;;;;;;22.04;52.05;98879.44;5045751;28;20042;-81
2021/08/08 00:57:52;;;;;;;26.70;6.47;;;;;;;22.01;51.91;98880.97;5023169;28;20053;-80
2021/08/08 01:00:20;;;;;;;22.17;6.43;;;;;;;21.96;52.07;98890.44;5027545;28;20041;-80
2021/08/08 01:02:51;;;;;;;22.23;7.03;;;;;;;21.98;52.06;98890.06;5035321;28;20343;-79
2021/08/08 01:05:26;;;;;;;21.85;6.97;;;;;;;21.95;52.14;98883.25;5039662;28;20514;-80
2021/08/08 01:07:56;;;;;;;24.45;7.57;;;;;;;21.99;52.12;98888.91;5027112;28;20400;-81
2021/08/08 01:10:24;;;;;;;21.38;6.45;;;;;;;21.99;52.38;98886.13;5035751;28;20133;-81
2021/08/08 01:12:51;;;;;;;16.35;5.97;;;;;;;21.95;52.28;98877.69;5030649;28;20144;-81
2021/08/08 01:15:22;;;;;;;17.65;6.25;;;;;;;21.94;52.35;98880.88;5034769;28;20525;-80
2021/08/08 01:17:51;;;;;;;19.83;6.60;;;;;;;21.96;52.41;98890.44;5012936;28;20140;-80
2021/08/08 01:20:20;;;;;;;17.63;6.38;;;;;;;21.96;51.94;98889.66;5044125;28;20493;-81
2021/08/08 01:22:55;;;;;;;18.02;6.00;;;;;;;21.94;51.73;98897.56;5028847;28;20051;-82
2021/08/08 01:25:25;;;;;;;16.80;6.63;;;;;;;21.93;51.79;98907.06;5038423;28;20406;-82
2021/08/08 01:27:53;;;;;;;20.17;6.75;;;;;;;21.91;51.93;98898.28;5035439;28;20132;-81
2021/08/08 01:30:21;;;;;;;25.63;7.18;;;;;;;21.92;52.44;98897.94;5022145;28;20096;-80
2021/08/08 01:32:48;;;;;;;25.65;7.88;;;;;;;21.85;52.26;98886.69;5020052;28;20081;-82
2021/08/08 01:35:17;;;;;;;19.95;7.72;;;;;;;21.92;52.20;98903.50;5029436;28;20049;-81
2021/08/08 01:37:43;;;;;;;27.42;7.80;;;;;;;21.91;51.93;98910.25;5011188;28;20050;-81
2021/08/08 01:40:17;;;;;;;22.48;7.38;;;;;;;21.93;52.10;98913.44;5034342;28;20057;-81
2021/08/08 01:42:48;;;;;;;30.30;7.55;;;;;;;21.91;52.09;98915.81;5033437;28;20050;-81
2021/08/08 01:45:17;;;;;;;22.10;7.10;;;;;;;21.88;52.60;98902.66;5032686;28;20056;-81
2021/08/08 01:47:49;;;;;;;15.43;6.13;;;;;;;21.87;52.27;98900.22;5037621;28;20056;-81
2021/08/08 01:50:20;;;;;;;20.75;6.78;;;;;;;21.85;52.25;98903.38;5014130;28;20129;-81
2021/08/08 01:52:49;;;;;;;23.50;6.70;;;;;;;21.87;52.26;98903.00;5014547;28;20048;-81
2021/08/08 01:55:21;;;;;;;22.15;6.72;;;;;;;21.88;52.21;98905.44;5022601;28;20038;-83
2021/08/08 01:57:57;;;;;;;25.83;7.03;;;;;;;21.89;52.11;98903.44;5016822;28;20057;-83
2021/08/08 02:00:26;;;;;;;22.33;6.60;;;;;;;21.82;52.44;98904.13;5027344;28;20049;-83
2021/08/08 02:02:57;;;;;;;21.95;6.88;;;;;;;21.82;52.88;98909.69;5031746;28;20041;-83
2021/08/08 02:05:38;;;;;;;19.48;6.82;;;;;;;21.81;52.71;98927.56;5034347;28;20045;-82
2021/08/08 02:08:05;;;;;;;13.85;6.78;;;;;;;21.83;52.83;98924.41;5022031;28;20043;-84
2021/08/08 02:10:41;;;;;;;;;;;;;;;21.83;53.06;98929.97;5040794;28;20514;-81
2021/08/08 02:13:09;;;;;;;15.75;6.75;;;;;;;21.83;52.88;98929.97;5029412;28;19971;-80
2021/08/08 02:15:35;;;;;;;20.00;6.88;;;;;;;21.77;52.95;98926.69;5037418;28;20069;-80
2021/08/08 02:18:05;;;;;;;27.27;7.05;;;;;;;21.69;53.52;98945.25;5028343;28;20132;-80
2021/08/08 02:20:35;;;;;;;23.30;6.85;;;;;;;21.67;53.63;98953.16;5029674;28;20132;-80
2021/08/08 02:23:04;;;;;;;27.08;7.55;;;;;;;21.65;54.01;98970.22;5022025;28;20527;-81
2021/08/08 02:25:34;;;;;;;25.02;6.85;;;;;;;21.65;54.08;98981.34;5029725;28;20135;-81
2021/08/08 02:28:07;;;;;;;24.67;7.00;;;;;;;21.66;54.11;98982.16;5035126;28;20037;-81
2021/08/08 02:30:37;;;;;;;28.95;7.45;;;;;;;21.62;54.53;98992.34;5030404;28;20483;-80
2021/08/08 02:33:05;;;;;;;28.42;8.40;;;;;;;21.66;54.48;99004.41;5013506;28;20136;-81
2021/08/08 02:35:35;;;;;;;34.53;11.88;;;;;;;21.61;54.76;99013.00;5027141;28;20346;-81
2021/08/08 02:38:03;;;;;;;36.47;10.15;;;;;;;21.59;54.81;99023.69;5032249;28;20056;-79
2021/08/08 02:40:29;;;;;;;34.00;8.30;;;;;;;21.51;54.96;99019.97;5034004;28;20046;-80
2021/08/08 02:42:57;;;;;;;25.67;7.82;;;;;;;21.47;54.92;99008.81;5040963;28;20050;-80
2021/08/08 02:45:23;;;;;;;26.00;7.60;;;;;;;21.46;54.81;99015.50;5003415;28;20100;-80
2021/08/08 02:47:55;;;;;;;24.10;7.53;;;;;;;21.41;54.98;99004.69;5017974;28;20056;-80
2021/08/08 02:50:21;;;;;;;25.40;7.60;;;;;;;21.40;54.83;99005.88;5027192;28;20041;-80
2021/08/08 02:52:47;;;;;;;21.77;8.10;;;;;;;21.44;54.89;99003.16;5032508;28;20057;-82
2021/08/08 02:55:14;;;;;;;20.05;7.35;;;;;;;21.41;54.83;98995.56;5020716;28;20344;-81
2021/08/08 02:57:49;;;;;;;26.80;7.65;;;;;;;21.39;55.12;98980.06;5039570;28;20037;-80
2021/08/08 03:00:15;;;;;;;25.00;7.32;;;;;;;21.33;55.27;98973.16;5049169;28;20046;-79
2021/08/08 03:02:41;;;;;;;18.02;7.78;;;;;;;21.39;54.96;98959.78;5027064;28;20084;-80
2021/08/08 03:05:10;;;;;;;24.52;7.82;;;;;;;21.41;54.91;98959.41;5029658;28;20091;-80
2021/08/08 03:07:37;;;;;;;26.48;7.68;;;;;;;21.42;54.57;98950.69;5023703;28;20132;-81
2021/08/08 03:10:03;;;;;;;18.85;7.35;;;;;;;21.38;54.31;98933.16;5031348;28;20037;-81
2021/08/08 03:12:29;;;;;;;20.88;7.30;;;;;;;21.43;53.16;98923.72;5034064;28;20056;-81
2021/08/08 03:14:56;;;;;;;23.48;7.43;;;;;;;21.56;52.96;98916.78;5029287;28;20072;-81
2021/08/08 03:17:22;;;;;;;23.10;7.23;;;;;;;21.66;52.85;98921.75;5021449;28;20045;-80
2021/08/08 03:19:48;;;;;;;22.27;7.75;;;;;;;21.67;53.51;98926.13;5027368;28;20045;-81
2021/08/08 03:22:16;;;;;;;22.55;7.72;;;;;;;21.66;55.10;98923.75;5044973;28;20055;-82
2021/08/08 03:24:43;;;;;;;35.22;8.27;;;;;;;21.67;55.90;98923.34;5032199;28;20041;-81
2021/08/08 03:27:10;;;;;;;30.58;7.80;;;;;;;21.64;56.52;98926.84;5020678;28;20355;-82
2021/08/08 03:29:39;;;;;;;23.90;8.52;;;;;;;21.60;56.79;98939.91;5025933;28;20140;-82
2021/08/08 03:32:06;;;;;;;18.50;7.20;;;;;;;21.62;57.19;98937.56;5027169;28;20042;-81
2021/08/08 03:34:32;;;;;;;22.35;7.45;;;;;;;21.61;57.67;98926.78;5021473;28;20076;-81
2021/08/08 03:36:58;;;;;;;24.48;7.43;;;;;;;21.55;57.72;98937.44;5022294;28;20053;-81
2021/08/08 03:39:26;;;;;;;19.13;7.67;;;;;;;21.54;57.62;98935.81;5027702;28;20111;-82
2021/08/08 03:41:53;;;;;;;23.67;8.00;;;;;;;21.53;58.14;98962.81;5042555;28;20045;-81
2021/08/08 03:44:20;;;;;;;19.50;7.50;;;;;;;21.52;58.25;98980.69;5007386;28;20046;-81
2021/08/08 03:46:48;;;;;;;16.08;7.30;;;;;;;21.48;58.03;98979.00;5031550;28;20103;-82
2021/08/08 03:49:15;;;;;;;23.75;8.02;;;;;;;21.49;58.07;98980.59;5029682;28;20057;-80
2021/08/08 03:51:41;;;;;;;17.20;8.02;;;;;;;21.48;58.23;98973.44;5020791;28;20066;-81
2021/08/08 03:54:07;;;;;;;24.85;8.88;;;;;;;21.45;58.05;98991.66;5026580;28;20136;-81
2021/08/08 03:56:35;;;;;;;21.13;8.57;;;;;;;21.41;58.28;98990.00;5021414;28;20129;-81
2021/08/08 03:59:02;;;;;;;23.25;8.18;;;;;;;21.38;57.89;98978.41;5040860;28;20049;-80
2021/08/08 04:01:29;;;;;;;17.95;8.30;;;;;;;21.36;57.94;98966.88;5024613;28;20045;-80
2021/08/08 04:03:55;;;;;;;21.13;7.82;;;;;;;21.35;57.79;98970.81;5021065;28;20042;-80
2021/08/08 04:06:21;;;;;;;17.92;7.95;;;;;;;21.33;57.88;98973.16;5038599;28;20526;-80
2021/08/08 04:08:48;;;;;;;21.55;8.07;;;;;;;21.31;58.29;98981.06;5024521;28;20055;-81
2021/08/08 04:11:14;;;;;;;22.50;8.48;;;;;;;21.26;58.84;98975.81;5020698;28;20526;-80
2021/08/08 04:13:43;;;;;;;18.50;8.55;;;;;;;21.32;58.55;98985.47;5035342;28;20050;-81
2021/08/08 04:16:09;;;;;;;19.20;9.20;;;;;;;21.27;58.67;98984.94;5039717;28;20048;-81
2021/08/08 04:18:35;;;;;;;19.20;8.77;;;;;;;21.28;58.31;98983.78;5027469;28;20049;-81
2021/08/08 04:21:03;;;;;;;23.05;8.63;;;;;;;21.26;58.50;98970.28;5031587;28;20060;-80
2021/08/08 04:23:29;;;;;;;23.63;8.90;;;;;;;21.20;58.74;98980.88;5042277;28;20041;-80
2021/08/08 04:25:55;;;;;;;22.75;9.13;;;;;;;21.22;58.29;98978.53;5027379;28;20308;-81
2021/08/08 04:28:21;;;;;;;31.70;10.65;;;;;;;21.24;58.32;98983.72;5016651;28;20127;-82
2021/08/08 04:30:50;;;;;;;32.67;12.80;;;;;;;21.28;58.22;98973.47;5026207;28;20049;-81
2021/08/08 04:33:16;;;;;;;41.42;15.15;;;;;;;21.42;58.03;98964.59;5012765;28;20061;-81
2021/08/08 04:35:42;;;;;;;41.60;15.63;;;;;;;21.47;57.67;98961.53;5041013;28;20048;-81
2021/08/08 04:38:08;;;;;;;34.03;13.80;;;;;;;21.51;57.39;98981.84;5037703;28;20510;-83
2021/08/08 04:40:38;;;;;;;39.28;11.60;;;;;;;21.52;56.84;98974.31;5020569;28;20532;-81
2021/08/08 04:43:07;;;;;;;34.97;11.25;;;;;;;21.53;56.73;98971.16;5009850;28;20043;-81
2021/08/08 04:45:35;;;;;;;34.85;11.23;;;;;;;21.54;56.71;98972.78;5027309;28;20449;-81
2021/08/08 04:48:03;;;;;;;44.97;12.75;;;;;;;21.60;56.60;98970.50;5027828;28;20434;-81
2021/08/08 04:50:31;;;;;;;30.45;10.68;;;;;;;21.61;55.98;98982.41;5030837;28;20045;-81
2021/08/08 04:52:57;;;;;;;29.33;10.55;;;;;;;21.57;55.94;98987.94;5029455;28;20568;-81
2021/08/08 04:55:23;;;;;;;24.15;9.98;;;;;;;21.51;55.46;98989.38;5029197;28;20485;-81
2021/08/08 04:57:50;;;;;;;27.13;10.00;;;;;;;21.54;55.59;98989.44;5006121;28;20088;-82
2021/08/08 05:00:19;;;;;;;32.35;9.13;;;;;;;21.60;55.41;98991.91;5029114;28;20109;-82
2021/08/08 05:02:46;;;;;;;25.52;9.43;;;;;;;21.70;55.48;98998.88;5035435;28;20045;-80
2021/08/08 05:05:14;;;;;;;24.25;9.40;;;;;;;21.72;55.52;98996.56;5018974;28;20050;-80
2021/08/08 05:07:41;;;;;;;29.33;11.43;;;;;;;21.81;55.84;99008.22;5021940;28;20049;-81
2021/08/08 05:10:11;;;;;;;23.15;11.70;;;;;;;21.82;56.00;99018.19;5034864;28;20517;-79
2021/08/08 05:12:37;;;;;;;26.75;10.90;;;;;;;21.76;56.12;99028.00;5021882;28;20059;-79
2021/08/08 05:15:05;;;;;;;25.77;10.23;;;;;;;21.77;55.81;99013.72;5023937;28;20045;-80
2021/08/08 05:17:31;;;;;;;25.85;9.90;;;;;;;21.86;56.02;99013.50;5020972;28;20046;-80
2021/08/08 05:19:58;;;;;;;30.38;10.68;;;;;;;21.94;55.89;99011.66;5022652;28;20049;-80
2021/08/08 05:22:26;;;;;;;26.25;10.48;;;;;;;21.92;56.04;99019.53;5016229;28;20541;-80
2021/08/08 05:24:53;;;;;;;32.38;10.20;;;;;;;22.01;56.19;99025.69;5023293;28;20136;-80
2021/08/08 05:27:20;;;;;;;39.20;10.05;;;;;;;22.07;56.34;99028.97;5021880;28;20038;-80
2021/08/08 05:29:46;;;;;;;41.57;11.30;;;;;;;22.09;56.27;99032.16;5013140;28;20556;-80
2021/08/08 05:32:12;;;;;;;47.77;11.70;;;;;;;22.00;56.15;99018.50;5039719;28;20069;-79
2021/08/08 05:34:39;;;;;;;44.38;10.05;;;;;;;22.07;56.65;99043.66;5027021;28;20803;-80
2021/08/08 05:37:05;;;;;;;27.10;9.60;;;;;;;21.96;57.11;99051.03;5033103;28;20056;-79
2021/08/08 05:39:34;;;;;;;27.38;9.57;;;;;;;21.89;57.83;99060.06;5029422;28;20071;-80
2021/08/08 05:42:00;;;;;;;30.98;10.30;;;;;;;21.79;58.67;99057.88;5037864;28;20050;-80
2021/08/08 05:44:26;;;;;;;26.88;9.73;;;;;;;21.79;58.79;99055.91;5025640;28;20053;-80
2021/08/08 05:46:53;;;;;;;24.00;9.40;;;;;;;21.81;58.75;99055.53;5040690;28;20053;-80
2021/08/08 05:49:19;;;;;;;26.63;10.40;;;;;;;21.80;59.18;99056.69;5029493;28;20048;-81
2021/08/08 05:51:45;;;;;;;21.97;9.73;;;;;;;21.77;58.98;99038.75;5029805;28;20044;-80
2021/08/08 05:54:12;;;;;;;20.48;9.40;;;;;;;21.84;58.84;99057.56;5015088;28;20077;-80
2021/08/08 05:56:39;;;;;;;22.38;9.18;;;;;;;21.85;58.92;99056.38;5022768;28;20045;-80
2021/08/08 05:59:06;;;;;;;23.15;8.32;;;;;;;21.87;58.41;99045.72;5033241;28;20065;-82
2021/08/08 06:01:32;;;;;;;29.40;9.27;;;;;;;21.81;58.60;99044.41;5041595;28;20057;-81
2021/08/08 06:03:58;;;;;;;25.83;8.77;;;;;;;21.81;58.71;99049.97;5023922;28;20065;-82
2021/08/08 06:06:25;;;;;;;29.25;9.88;;;;;;;21.83;58.57;99055.97;5031976;28;20045;-82
2021/08/08 06:08:53;;;;;;;31.13;9.35;;;;;;;21.81;58.83;99058.31;5027601;28;20036;-81
2021/08/08 06:11:19;;;;;;;26.02;9.73;;;;;;;21.78;58.70;99054.31;5024562;28;20147;-81
2021/08/08 06:13:46;;;;;;;24.00;9.45;;;;;;;21.61;59.04;99029.69;5037358;28;20042;-81
2021/08/08 06:16:12;;;;;;;23.38;9.75;;;;;;;21.89;58.78;99073.16;5060071;28;20052;-82
2021/08/08 06:18:38;;;;;;;25.73;9.38;;;;;;;21.86;58.72;99071.13;5046378;28;20488;-82
2021/08/08 06:21:04;;;;;;;31.55;10.35;;;;;;;21.79;59.17;99064.25;5030089;28;20044;-82
2021/08/08 06:23:40;;;;;;;39.85;10.15;;;;;;;21.91;59.13;99085.53;5026396;28;20037;-81
2021/08/08 06:26:06;;;;;;;46.33;12.75;;;;;;;21.87;59.19;99079.09;5040898;28;20552;-82
2021/08/08 06:28:32;;;;;;;56.78;14.15;;;;;;;21.84;59.35;99095.72;5034461;28;20060;-81
2021/08/08 06:31:00;;;;;;;32.77;10.50;;;;;;;21.72;59.64;99097.47;5049181;28;20045;-82
2021/08/08 06:33:26;;;;;;;;;;;;;;;21.73;59.91;99109.44;5032859;28;20103;-83
2021/08/08 06:35:53;;;;;;;22.27;9.13;;;;;;;21.67;60.48;99112.47;5020084;28;20055;-83
2021/08/08 06:38:20;;;;;;;20.85;8.82;;;;;;;21.46;61.59;99129.50;5010100;28;20052;-82
2021/08/08 06:40:46;;;;;;;20.02;8.77;;;;;;;21.43;62.51;99123.88;5038732;28;20046;-81
2021/08/08 06:43:13;;;;;;;28.23;10.02;;;;;;;21.50;62.47;99126.81;5037966;28;20132;-81
2021/08/08 06:45:40;;;;;;;21.50;9.65;;;;;;;21.46;62.57;99123.16;5007259;28;20046;-80
2021/08/08 06:48:08;;;;;;;25.33;9.13;;;;;;;21.58;62.90;99127.75;5018627;28;20571;-81
2021/08/08 06:50:35;;;;;;;30.63;11.07;;;;;;;21.57;63.10;99131.72;5048556;28;20049;-81
2021/08/08 06:53:01;;;;;;;26.20;9.90;;;;;;;21.54;63.25;99134.06;5050065;28;20115;-80
2021/08/08 06:55:28;;;;;;;26.67;9.97;;;;;;;21.62;63.27;99128.63;5035344;28;20112;-84
2021/08/08 06:57:55;;;;;;;25.17;9.75;;;;;;;21.66;63.31;99124.78;5048619;28;20114;-82
2021/08/08 07:00:22;;;;;;;31.35;10.38;;;;;;;21.70;62.83;99104.56;5008862;28;20087;-84
2021/08/08 07:02:50;;;;;;;40.92;11.90;;;;;;;21.86;62.56;99116.44;5029997;28;20054;-83
2021/08/08 07:05:18;;;;;;;62.80;12.63;;;;;;;21.92;62.27;99105.78;5028758;28;20091;-81
2021/08/08 07:07:44;;;;;;;63.70;12.65;;;;;;;22.03;62.18;99111.59;5032717;28;20045;-80
2021/08/08 07:10:11;;;;;;;46.10;12.03;;;;;;;22.07;61.87;99104.09;5048468;28;20103;-81
2021/08/08 07:12:38;;;;;;;45.28;12.25;;;;;;;22.15;62.00;99111.38;5030388;28;20363;-81
2021/08/08 07:15:07;;;;;;;46.33;11.45;;;;;;;22.20;61.73;99119.44;5028944;28;20453;-80
2021/08/08 07:17:34;;;;;;;51.67;12.48;;;;;;;22.27;61.69;99115.19;5029891;28;20506;-80
2021/08/08 07:20:03;;;;;;;46.78;12.73;;;;;;;22.31;61.50;99114.06;5033871;28;20091;-80
2021/08/08 07:22:32;;;;;;;44.50;12.20;;;;;;;22.33;61.61;99103.34;5029292;28;20435;-80
2021/08/08 07:24:58;;;;;;;45.33;13.30;;;;;;;22.46;61.47;99120.66;5029656;28;20136;-81
2021/08/08 07:27:25;;;;;;;;;;;;;;;22.53;61.24;99114.44;5012988;28;20461;-81
2021/08/08 07:29:51;;;;;;;43.45;16.63;;;;;;;22.56;61.47;99112.91;5045047;28;19925;-81
2021/08/08 07:32:18;;;;;;;45.50;16.27;;;;;;;22.65;61.63;99116.25;5029575;28;20037;-81
2021/08/08 07:34:44;;;;;;;32.58;13.80;;;;;;;22.68;61.46;99112.72;5027459;28;20049;-81
2021/08/08 07:37:10;;;;;;;39.17;15.93;;;;;;;22.76;61.38;99119.19;5016603;28;20053;-89
2021/08/08 07:39:40;;;;;;;36.47;16.05;;;;;;;22.78;61.45;99114.84;5036999;28;20057;-81
2021/08/08 07:42:06;;;;;;;39.50;16.75;;;;;;;22.82;62.08;99128.03;5028379;28;20117;-82
2021/08/08 07:44:33;;;;;;;31.02;13.93;;;;;;;22.82;62.28;99123.25;5030211;28;20064;-81
2021/08/08 07:46:59;;;;;;;37.00;14.83;;;;;;;22.86;62.44;99128.91;5029929;28;20431;-82
2021/08/08 07:49:25;;;;;;;39.90;15.90;;;;;;;22.84;62.39;99129.25;5048000;28;20307;-81
2021/08/08 07:51:57;;;;;;;31.20;14.90;;;;;;;22.86;62.80;99138.03;5012039;28;20473;-81
2021/08/08 07:54:23;;;;;;;38.00;14.90;;;;;;;22.90;63.13;99136.16;5026119;28;20037;-82
2021/08/08 07:56:51;;;;;;;32.58;14.05;;;;;;;22.89;63.49;99140.09;5042239;28;20340;-77
2021/08/08 07:59:17;;;;;;;32.10;13.65;;;;;;;22.86;63.58;99129.69;5030364;28;20136;-81
2021/08/08 08:01:44;;;;;;;33.00;13.32;;;;;;;22.91;63.76;99146.09;5030323;28;20167;-81
2021/08/08 08:04:10;;;;;;;30.40;12.13;;;;;;;22.93;63.62;99154.06;5018501;28;20070;-82
2021/08/08 08:06:38;;;;;;;26.48;12.55;;;;;;;22.92;63.83;99156.06;5026576;28;20049;-82
2021/08/08 08:09:06;;;;;;;26.90;13.60;;;;;;;22.91;63.99;99157.25;5046513;28;20045;-81
2021/08/08 08:11:34;;;;;;;37.72;14.57;;;;;;;22.93;64.21;99157.69;4997949;28;20167;-82
2021/08/08 08:14:01;;;;;;;33.05;14.85;;;;;;;22.95;64.60;99165.69;5031426;28;20569;-82
2021/08/08 08:16:27;;;;;;;34.95;14.02;;;;;;;22.96;64.68;99170.06;5040332;28;20073;-82
2021/08/08 08:18:53;;;;;;;32.00;13.73;;;;;;;23.01;64.79;99166.13;5030780;28;20560;-81
2021/08/08 08:21:19;;;;;;;34.25;13.25;;;;;;;23.02;64.79;99163.00;5047641;28;20557;-81
2021/08/08 08:23:45;;;;;;;27.70;13.73;;;;;;;23.03;64.50;99161.81;5032529;28;20056;-80
2021/08/08 08:26:11;;;;;;;33.50;13.60;;;;;;;23.11;65.17;99161.94;5026682;28;20489;-80
2021/08/08 08:28:37;;;;;;;38.20;14.38;;;;;;;23.06;65.12;99152.69;5033030;28;20433;-80
2021/08/08 08:31:05;;;;;;;20.77;10.95;;;;;;;23.15;64.94;99168.34;5015596;28;20112;-80
2021/08/08 08:33:32;;;;;;;29.23;13.10;;;;;;;23.20;64.98;99163.25;5051172;28;20046;-81
2021/08/08 08:35:58;;;;;;;25.20;12.48;;;;;;;23.25;64.82;99159.31;5034683;28;20072;-82
2021/08/08 08:38:24;;;;;;;31.70;12.87;;;;;;;23.29;64.68;99163.03;5047252;28;20056;-81
2021/08/08 08:40:51;;;;;;;27.43;12.47;;;;;;;23.34;64.66;99168.25;5046495;28;20508;-81
2021/08/08 08:43:26;;;;;;;30.63;13.20;;;;;;;23.36;64.52;99159.53;5030476;28;20049;-81
2021/08/08 08:45:54;;;;;;;37.90;13.18;;;;;;;23.40;64.80;99162.34;5033121;28;20056;-81
2021/08/08 08:48:24;;;;;;;26.02;10.73;;;;;;;23.42;64.59;99163.59;5034922;28;20049;-81
2021/08/08 08:50:54;;;;;;;25.00;11.90;;;;;;;23.42;64.22;99163.59;5046087;28;20119;-81
2021/08/08 08:53:22;;;;;;;26.15;10.38;;;;;;;23.36;63.31;99162.31;4997636;28;20044;-81
2021/08/08 08:55:50;;;;;;;28.55;10.18;;;;;;;23.36;62.70;99160.31;5035588;28;20119;-81
2021/08/08 08:58:20;;;;;;;47.08;11.63;;;;;;;23.36;62.56;99157.53;5046494;28;20130;-81
2021/08/08 09:00:46;;;;;;;;;;;;;;;23.41;62.49;99163.94;5030866;28;20410;-82
2021/08/08 09:03:13;;;;;;;32.78;8.25;;;;;;;23.37;61.12;99169.50;5030007;28;20382;-81
2021/08/08 09:05:41;;;;;;;20.42;7.85;;;;;;;23.33;60.27;99158.28;5028905;28;20128;-81
2021/08/08 09:08:08;;;;;;;18.13;7.25;;;;;;;23.36;60.24;99153.94;5038469;28;20054;-81
2021/08/08 09:10:36;;;;;;;22.95;7.55;;;;;;;23.35;59.90;99161.50;5049106;28;20049;-81
2021/08/08 09:13:04;;;;;;;26.20;8.20;;;;;;;23.36;59.84;99167.88;5031678;28;20417;-81
2021/08/08 09:15:38;;;;;;;27.83;8.10;;;;;;;23.36;59.63;99179.03;5026040;28;20104;-81
2021/08/08 09:18:13;;;;;;;30.13;7.78;;;;;;;23.29;59.54;99164.97;5037293;28;20074;-81
2021/08/08 09:20:47;;;;;;;22.92;8.48;;;;;;;23.28;60.07;99168.97;5035647;28;20049;-81
2021/08/08 09:23:14;;;;;;;22.73;8.15;;;;;;;23.28;60.08;99174.53;5047848;28;20128;-81
2021/08/08 09:25:47;;;;;;;;;;;;;;;23.28;60.01;99183.72;5010310;28;20132;-81
2021/08/08 09:28:13;;;;;;;16.65;7.43;;;;;;;23.33;60.23;99175.00;5048045;28;19924;-81
2021/08/08 09:30:42;;;;;;;17.40;7.57;;;;;;;23.38;60.34;99171.09;5046251;28;20044;-81
2021/08/08 09:33:10;;;;;;;18.75;8.40;;;;;;;23.35;60.96;99172.66;5013568;28;20048;-81
2021/08/08 09:35:38;;;;;;;14.55;7.32;;;;;;;23.37;61.31;99187.03;5033234;28;20048;-81
2021/08/08 09:38:07;;;;;;;18.08;7.95;;;;;;;23.41;61.18;99191.84;5047970;28;20077;-81
2021/08/08 09:40:36;;;;;;;16.77;7.57;;;;;;;23.43;61.13;99198.66;5047302;28;20106;-81
2021/08/08 09:43:04;;;;;;;18.40;7.50;;;;;;;23.32;60.81;99180.97;5049520;28;20049;-81
2021/08/08 09:45:36;;;;;;;14.32;6.63;;;;;;;23.44;60.54;99191.91;5030397;28;20041;-81
2021/08/08 09:48:04;;;;;;;15.88;7.18;;;;;;;23.42;60.23;99190.69;5029308;28;20461;-82
2021/08/08 09:50:32;;;;;;;;;;;;;;;23.43;59.96;99198.66;5034397;28;20136;-81
2021/08/08 09:53:00;;;;;;;16.58;6.70;;;;;;;23.42;59.78;99194.25;5048414;28;20032;-81
2021/08/08 09:55:37;;;;;;;15.77;6.00;;;;;;;23.45;59.13;99187.13;5030511;28;20081;-81
2021/08/08 09:58:05;;;;;;;12.98;5.88;;;;;;;23.42;59.07;99187.91;5025627;28;20049;-81
2021/08/08 10:00:35;;;;;;;11.43;6.00;;;;;;;23.45;58.85;99187.13;5043005;28;20045;-81
2021/08/08 10:03:03;;;;;;;12.88;5.78;;;;;;;23.36;58.56;99199.34;5046037;28;20049;-80
2021/08/08 10:05:31;;;;;;;16.17;6.28;;;;;;;23.15;59.01;99190.66;5035409;28;20045;-80
2021/08/08 10:07:59;;;;;;;17.20;6.13;;;;;;;23.05;59.79;99198.47;5041659;28;20072;-81
2021/08/08 10:10:25;;;;;;;20.23;6.10;;;;;;;23.05;59.63;99198.47;5033978;28;20055;-81
2021/08/08 10:13:17;;;;;;;13.85;6.43;;;;;;;23.11;59.51;99210.09;5046793;28;20053;-81
2021/08/08 10:15:44;;;;;;;13.50;5.70;;;;;;;22.92;59.69;99199.84;5016839;28;20048;-81
2021/08/08 10:18:13;;;;;;;14.48;6.28;;;;;;;22.93;59.68;99230.13;5018645;28;20050;-81
2021/08/08 10:20:41;;;;;;;12.48;5.85;;;;;;;22.91;59.74;99207.41;5034593;28;20131;-81
2021/08/08 10:23:11;;;;;;;14.45;6.25;;;;;;;22.92;59.95;99217.38;5051639;28;20083;-81
2021/08/08 10:25:38;;;;;;;14.52;6.20;;;;;;;22.96;59.75;99223.03;5033576;28;20085;-81
2021/08/08 10:28:07;;;;;;;16.58;6.35;;;;;;;22.88;60.28;99212.94;5037306;28;20045;-81
2021/08/08 10:30:35;;;;;;;15.43;6.55;;;;;;;22.98;60.20;99217.88;5044889;28;20044;-81
2021/08/08 10:33:02;;;;;;;15.40;6.03;;;;;;;23.03;59.80;99217.56;5051564;28;20041;-81
2021/08/08 10:35:36;;;;;;;12.25;6.35;;;;;;;23.11;59.31;99210.09;5052352;28;20144;-81
2021/08/08 10:38:02;;;;;;;18.77;6.60;;;;;;;23.13;59.18;99206.97;5048964;28;20437;-81
2021/08/08 10:40:31;;;;;;;13.13;6.15;;;;;;;23.20;59.22;99215.41;5052928;28;20536;-81
2021/08/08 10:42:58;;;;;;;14.60;5.90;;;;;;;23.21;59.19;99217.84;5052004;28;20080;-81
2021/08/08 10:45:25;;;;;;;;;;;;;;;23.18;59.21;99215.81;5034551;28;20469;-81
2021/08/08 10:47:58;;;;;;;14.82;6.20;;;;;;;23.24;58.74;99213.47;5048989;28;19963;-81
2021/08/08 10:50:36;;;;;;;19.35;6.05;;;;;;;23.28;58.90;99217.19;5033747;28;20049;-81
2021/08/08 10:53:02;;;;;;;14.75;6.32;;;;;;;23.31;59.01;99213.63;5037771;28;20056;-81
2021/08/08 10:55:30;;;;;;;15.73;6.38;;;;;;;23.34;59.05;99200.94;5033720;28;20050;-81
2021/08/08 10:57:57;;;;;;;13.90;6.38;;;;;;;23.37;59.37;99209.31;5035940;28;20139;-81
2021/08/08 11:00:31;;;;;;;16.67;5.95;;;;;;;23.44;59.47;99230.16;5032650;28;20061;-81
2021/08/08 11:03:08;;;;;;;13.60;5.93;;;;;;;23.42;58.98;99232.53;5033765;28;20176;-81
2021/08/08 11:05:34;;;;;;;13.07;5.18;;;;;;;23.38;59.11;99232.47;5044302;28;20517;-81
2021/08/08 11:08:02;;;;;;;17.08;5.85;;;;;;;23.33;58.81;99224.41;5052196;28;20068;-82
2021/08/08 11:10:29;;;;;;;12.32;5.22;;;;;;;23.25;58.45;99234.59;5042962;28;20048;-81
2021/08/08 11:12:55;;;;;;;15.63;6.20;;;;;;;23.23;58.97;99228.59;5053268;28;20053;-81
2021/08/08 11:15:32;;;;;;;12.63;5.60;;;;;;;23.16;58.91;99232.09;5031990;28;20045;-81
2021/08/08 11:18:00;;;;;;;10.52;5.25;;;;;;;23.16;58.49;99228.50;5034907;28;20073;-81
2021/08/08 11:20:27;;;;;;;15.45;5.85;;;;;;;22.99;58.88;99215.88;5035183;28;20353;-81
2021/08/08 11:22:55;;;;;;;15.07;5.57;;;;;;;23.09;58.92;99237.56;5051550;28;20049;-81
2021/08/08 11:25:22;;;;;;;13.20;5.43;;;;;;;22.98;58.90;99217.88;5035357;28;20060;-81
2021/08/08 11:27:53;;;;;;;14.10;5.68;;;;;;;23.07;58.85;99242.72;5051288;28;20076;-81